Airfield :
LOGIN :

Register | Disclaimer

   EN    FR    IT 

 










Legend :    VFR   Marginal VFR   IFR   Intensive IFR   Very Intensive IFR
Visi :
Ceiling :
>= 8 km
>= 3000ft
5 to 8 km
1000 to 3000 ft
1500m to 5 km
500 to 1000 ft
800 to 1500m
200 to 500 ft
< 800m
< 200 ft
Symbols :   Thunderstorms  Fog  Heavy snow  Heavy precipitations  Wind > 20 kt
SIGMETs :     Misc.  Thunderstorms  Icing  Turbulence  Mountain Waves  Volcanic Ashes







- Airport Elevation : 56 ft
- IATA code : BZR
- Download approach charts


LFMU - Beziers / Vias

CURRENT METAR :
  • 250630Z AUTO 04006KT 5000 BR FEW004 OVC012 17/16 Q1016 TEMPO 2000 BR BKN005

EXPIRED METARs :
  • 250600Z AUTO 04005KT 4900 BR OVC012 16/15 Q1016 TEMPO 2000 BR BKN005
  • 250530Z AUTO 03004KT 4100 BR BKN009 BKN013 16/15 Q1016 TEMPO 2000 BR
  • 250500Z AUTO 03004KT 3700 BR BKN010 15/14 Q1016 TEMPO 2000 BR
  • 250430Z AUTO 03003KT 3500 BR BKN010 15/14 Q1016 TEMPO 2000 BR
  • 250400Z AUTO 04003KT 4600 BR BKN010 14/14 Q1016 TEMPO 2000 BR
  • 250330Z AUTO 03005KT 4700 BR NSC 15/14 Q1016 TEMPO 2000 BR BKN005

TAF TAF LFMU
Valid from the 25 at 03:00 until the 26 at 03:00 UTC


250200Z 2503/2603 07010KT 9999 SCT020
TEMPO 2503/2509 VRB02KT 2000 BR BKN005
BECMG 2509/2511 16008KT
ATIS : +33 4 67 90 88 88
No reported NOTAMs for that airfield.



MET'MAP, your aeronautical weather chart ! - Copyright ORBIFLY December 2007 - Disclaimer

ORBIFLY MET'MAP TEAM :

Programming & Development : Alexandra Zaïnal
Concept & Development : Baudouin d'Aumeries
Co-Development & Prog : Marc-Olivier Méhu
Technical & hardware support : Manuel Goepfert

Contact : metmap@orbifly.com




SOURCES & CREDITS :

   NOAA